LIBD/BRI METAR and TAF weather

Enter ICAO airport designator
Station Type Date Time Source
LIBD METAR 2022/05/26 04:20 UTC NOAA

LIBD 260420Z 22005KT CAVOK 19/16 Q1016


Station Type Date Time Source
LIBD Decoded METAR 2022/05/26 04:20 UTC NOAA

Bari / Palese Macchie, Italy (LIBD) 41-08N 016-47E 49M
May 26, 2022 - 12:20 AM EDT / 2022.05.26 0420 UTC
Wind: from the SW (220 degrees) at 6 MPH (5 KT):0
Visibility: greater than 7 mile(s):0
Temperature: 66 F (19 C)
Dew Point: 60 F (16 C)
Relative Humidity: 82%
Pressure (altimeter): 30.00 in. Hg (1016 hPa)
ob: LIBD 260420Z 22005KT CAVOK 19/16 Q1016
cycle: 4

Station Type Date Time Source
LIBD TAF 2022/05/25 18:30 UTC NOAA

TAF
AMD TAF
AMD LIBD 251726Z 2518/2618 19010KT 9999 FEW050
BECMG 2520/2522 VRB05KT
BECMG 2608/2610 03010KT

Example: see airport list